createdAt,value
2023-02-28T00:00:21.506Z,3.20
2023-02-28T00:01:21.527Z,3.40
2023-02-28T00:02:21.559Z,2.30
2023-02-28T00:03:21.583Z,3.10
2023-02-28T00:04:21.599Z,3.00
2023-02-28T00:05:21.589Z,2.80
2023-02-28T00:06:21.612Z,2.70
2023-02-28T00:07:21.627Z,2.40
2023-02-28T00:08:21.644Z,2.60
2023-02-28T00:09:21.665Z,2.90
2023-02-28T00:10:21.707Z,2.60
2023-02-28T00:11:21.697Z,2.80
2023-02-28T00:12:21.712Z,2.60
2023-02-28T00:13:21.740Z,2.50
2023-02-28T00:14:21.747Z,2.40
2023-02-28T00:15:21.777Z,2.60
2023-02-28T00:16:21.921Z,2.60
2023-02-28T00:17:21.812Z,3.50
2023-02-28T00:18:21.809Z,2.70
2023-02-28T00:19:21.825Z,2.40
2023-02-28T00:20:21.867Z,2.50
2023-02-28T00:21:21.905Z,2.70
2023-02-28T00:22:21.884Z,3.00
2023-02-28T00:23:21.895Z,2.60
2023-02-28T00:24:21.909Z,2.90
2023-02-28T00:25:21.928Z,2.80
2023-02-28T00:26:22.197Z,2.50
2023-02-28T00:27:21.967Z,3.30
2023-02-28T00:28:21.987Z,2.40
2023-02-28T00:29:21.995Z,2.30
2023-02-28T00:30:22.019Z,2.50
2023-02-28T00:31:22.031Z,2.40
2023-02-28T00:32:22.075Z,2.50
2023-02-28T00:33:22.061Z,2.40
2023-02-28T00:34:22.079Z,2.60
2023-02-28T00:35:22.116Z,2.40
2023-02-28T00:36:22.132Z,2.20
2023-02-28T00:37:22.131Z,2.40
2023-02-28T00:38:22.146Z,3.30
2023-02-28T00:39:22.177Z,2.50
2023-02-28T00:40:22.202Z,2.40
2023-02-28T00:41:22.201Z,2.30
2023-02-28T00:42:22.219Z,2.30
2023-02-28T00:43:22.238Z,2.10
2023-02-28T00:44:22.249Z,2.40
2023-02-28T00:45:22.273Z,2.00
2023-02-28T00:46:22.294Z,2.60
2023-02-28T00:47:22.298Z,2.40
2023-02-28T00:48:22.321Z,2.40
2023-02-28T00:49:22.331Z,2.50
2023-02-28T00:50:22.356Z,3.10
2023-02-28T00:51:22.380Z,2.30
2023-02-28T00:52:22.402Z,2.40
2023-02-28T00:53:22.399Z,2.30
2023-02-28T00:54:22.425Z,2.30
2023-02-28T00:55:22.431Z,2.40
2023-02-28T00:56:22.459Z,2.30
2023-02-28T00:57:22.468Z,2.20
2023-02-28T00:58:22.501Z,2.50
2023-02-28T00:59:22.508Z,2.50
2023-02-28T01:00:22.524Z,3.10
2023-02-28T01:01:22.571Z,2.40
2023-02-28T01:02:22.558Z,2.50
2023-02-28T01:03:22.575Z,2.50
2023-02-28T01:04:22.624Z,3.00
2023-02-28T01:05:22.613Z,2.40
2023-02-28T01:06:22.632Z,2.50
2023-02-28T01:07:22.643Z,3.30
2023-02-28T01:08:22.673Z,2.60
2023-02-28T01:09:22.673Z,2.90
2023-02-28T01:10:22.704Z,2.60
2023-02-28T01:11:22.708Z,2.50
2023-02-28T01:12:22.721Z,3.60
2023-02-28T01:13:22.738Z,2.40
2023-02-28T01:14:22.755Z,2.40
2023-02-28T01:15:22.771Z,2.60
2023-02-28T01:16:22.789Z,2.90
2023-02-28T01:17:22.807Z,2.60
2023-02-28T01:18:22.826Z,2.50
2023-02-28T01:19:22.847Z,2.50
2023-02-28T01:20:22.856Z,2.50
2023-02-28T01:21:22.887Z,2.40
2023-02-28T01:22:22.955Z,3.10
2023-02-28T01:23:22.913Z,3.30
2023-02-28T01:24:22.955Z,3.30
2023-02-28T01:25:22.999Z,2.30
2023-02-28T01:26:22.968Z,2.60
2023-02-28T01:27:22.981Z,2.50
2023-02-28T01:28:23.006Z,2.80
2023-02-28T01:29:23.016Z,2.90
2023-02-28T01:30:23.032Z,3.00
2023-02-28T01:31:23.088Z,2.50
2023-02-28T01:32:23.090Z,2.40
2023-02-28T01:33:23.083Z,2.80
2023-02-28T01:34:23.103Z,2.60
2023-02-28T01:35:23.118Z,2.40
2023-02-28T01:36:23.144Z,2.50
2023-02-28T01:37:23.145Z,2.60
2023-02-28T01:38:23.570Z,2.50
2023-02-28T01:39:23.185Z,2.30
2023-02-28T01:40:23.216Z,2.90
2023-02-28T01:41:23.213Z,2.60
2023-02-28T01:42:23.242Z,2.50
2023-02-28T01:43:23.254Z,2.40
2023-02-28T01:44:23.257Z,2.40
2023-02-28T01:45:23.278Z,2.30
2023-02-28T01:46:23.409Z,2.20
2023-02-28T01:47:23.306Z,2.70
2023-02-28T01:48:23.334Z,2.50
2023-02-28T01:49:23.347Z,2.20
2023-02-28T01:50:23.364Z,2.20
2023-02-28T01:51:23.386Z,2.20
2023-02-28T01:52:23.397Z,2.50
2023-02-28T01:53:23.414Z,2.20
2023-02-28T01:54:23.428Z,2.10
2023-02-28T01:55:23.487Z,2.00
2023-02-28T01:56:23.474Z,2.70
2023-02-28T01:57:23.476Z,2.40
2023-02-28T01:58:23.504Z,2.10
2023-02-28T01:59:23.513Z,2.20
2023-02-28T02:00:23.528Z,2.20
2023-02-28T02:01:23.607Z,2.10
2023-02-28T02:02:23.582Z,2.20
2023-02-28T02:03:23.573Z,2.00
2023-02-28T02:04:23.597Z,1.90
2023-02-28T02:05:23.609Z,3.00
2023-02-28T02:06:23.636Z,2.40
2023-02-28T02:07:23.646Z,2.10
2023-02-28T02:08:23.666Z,2.10
2023-02-28T02:09:23.676Z,2.10
2023-02-28T02:10:23.690Z,2.20
2023-02-28T02:11:23.705Z,2.10
2023-02-28T02:12:23.749Z,2.80
2023-02-28T02:13:23.738Z,2.80
2023-02-28T02:14:23.765Z,2.00
2023-02-28T02:15:23.782Z,1.90
2023-02-28T02:16:23.868Z,2.30
2023-02-28T02:17:23.815Z,2.10
2023-02-28T02:18:23.824Z,2.00
2023-02-28T02:19:23.844Z,2.50
2023-02-28T02:20:23.864Z,2.20
2023-02-28T02:21:23.881Z,2.10
2023-02-28T02:22:23.911Z,2.00
2023-02-28T02:23:23.907Z,2.00
2023-02-28T02:24:23.931Z,2.20
2023-02-28T02:25:23.941Z,2.30
2023-02-28T02:26:23.965Z,2.10
2023-02-28T02:27:23.981Z,2.10
2023-02-28T02:28:24.009Z,1.80
2023-02-28T02:29:24.020Z,2.70
2023-02-28T02:30:24.033Z,2.00
2023-02-28T02:31:24.098Z,2.20
2023-02-28T02:32:24.101Z,2.10
2023-02-28T02:33:24.074Z,2.20
2023-02-28T02:34:24.091Z,2.20
2023-02-28T02:35:24.207Z,2.40
2023-02-28T02:36:24.132Z,2.20
2023-02-28T02:37:24.159Z,2.50
2023-02-28T02:38:24.172Z,2.30
2023-02-28T02:39:24.175Z,2.20
2023-02-28T02:40:24.197Z,2.30
2023-02-28T02:41:24.215Z,2.30
2023-02-28T02:42:24.232Z,2.20
2023-02-28T02:43:24.248Z,2.30
2023-02-28T02:44:24.282Z,2.40
2023-02-28T02:45:24.275Z,2.40
2023-02-28T02:46:24.312Z,2.30
2023-02-28T02:47:24.316Z,2.50
2023-02-28T02:48:24.325Z,2.20
2023-02-28T02:49:24.359Z,2.10
2023-02-28T02:50:24.361Z,3.20
2023-02-28T02:51:24.374Z,2.30
2023-02-28T02:52:24.400Z,2.30
2023-02-28T02:53:24.415Z,2.60
2023-02-28T02:54:24.434Z,2.20
2023-02-28T02:55:24.445Z,2.30
2023-02-28T02:56:24.484Z,2.40
2023-02-28T02:57:24.488Z,2.60
2023-02-28T02:58:24.502Z,2.10
2023-02-28T02:59:24.509Z,2.40
2023-02-28T03:00:24.557Z,2.30
2023-02-28T03:01:24.550Z,2.40
2023-02-28T03:02:24.560Z,2.40
2023-02-28T03:03:24.604Z,2.60
2023-02-28T03:04:24.602Z,3.00
2023-02-28T03:05:24.619Z,3.50
2023-02-28T03:06:24.635Z,2.30
2023-02-28T03:07:24.644Z,2.40
2023-02-28T03:08:24.660Z,2.30
2023-02-28T03:09:24.685Z,2.60
2023-02-28T03:10:24.700Z,2.70
2023-02-28T03:11:24.721Z,2.50
2023-02-28T03:12:24.730Z,2.90
2023-02-28T03:13:24.744Z,2.40
2023-02-28T03:14:24.770Z,2.50
2023-02-28T03:15:24.783Z,2.50
2023-02-28T03:16:25.074Z,2.30
2023-02-28T03:17:24.820Z,3.00
2023-02-28T03:18:24.836Z,2.80
2023-02-28T03:19:24.844Z,2.70
2023-02-28T03:20:24.877Z,2.50
2023-02-28T03:21:24.878Z,2.50
2023-02-28T03:22:24.902Z,2.60
2023-02-28T03:23:24.913Z,2.80
2023-02-28T03:24:24.938Z,2.50
2023-02-28T03:25:24.954Z,2.60
2023-02-28T03:26:24.965Z,3.20
2023-02-28T03:27:24.986Z,2.70
2023-02-28T03:28:25.007Z,2.50
2023-02-28T03:29:25.035Z,3.40
2023-02-28T03:30:25.040Z,2.70
2023-02-28T03:31:25.114Z,2.60
2023-02-28T03:32:25.124Z,2.90
2023-02-28T03:33:25.087Z,2.60
2023-02-28T03:34:25.107Z,2.50
2023-02-28T03:35:25.162Z,2.60
2023-02-28T03:36:25.131Z,2.70
2023-02-28T03:37:25.197Z,2.80
2023-02-28T03:38:25.165Z,2.60
2023-02-28T03:39:25.192Z,2.50
2023-02-28T03:40:25.202Z,2.70
2023-02-28T03:41:25.224Z,2.70
2023-02-28T03:42:25.240Z,3.00
2023-02-28T03:43:25.259Z,3.00
2023-02-28T03:44:25.267Z,2.90
2023-02-28T03:45:25.283Z,2.60
2023-02-28T03:46:25.311Z,2.60
2023-02-28T03:47:25.322Z,2.80
2023-02-28T03:48:25.365Z,2.60
2023-02-28T03:49:25.348Z,2.70
2023-02-28T03:50:25.373Z,2.90
2023-02-28T03:51:25.408Z,2.90
2023-02-28T03:52:25.399Z,3.60
2023-02-28T03:53:25.417Z,2.80
2023-02-28T03:54:25.439Z,2.90
2023-02-28T03:55:25.455Z,3.60
2023-02-28T03:56:25.464Z,2.90
2023-02-28T03:57:25.488Z,2.90
2023-02-28T03:58:25.500Z,2.90
2023-02-28T03:59:25.522Z,3.10
2023-02-28T04:00:27.536Z,3.50
2023-02-28T04:01:25.606Z,3.10
2023-02-28T04:02:25.571Z,2.90
2023-02-28T04:03:25.580Z,3.20
2023-02-28T04:04:25.788Z,3.00
2023-02-28T04:05:25.638Z,3.50
2023-02-28T04:06:25.637Z,3.30
2023-02-28T04:07:25.654Z,3.20
2023-02-28T04:08:25.670Z,2.70
2023-02-28T04:09:25.681Z,3.10
2023-02-28T04:10:25.701Z,3.10
2023-02-28T04:11:25.720Z,3.30
2023-02-28T04:12:25.734Z,2.90
2023-02-28T04:13:25.761Z,3.30
2023-02-28T04:14:25.771Z,3.20
2023-02-28T04:15:25.785Z,2.80
2023-02-28T04:16:34.972Z,3.10
2023-02-28T04:17:25.812Z,3.10
2023-02-28T04:18:25.841Z,3.50
2023-02-28T04:19:25.856Z,3.20
2023-02-28T04:20:25.901Z,3.10
2023-02-28T04:21:27.842Z,3.20
2023-02-28T04:22:25.903Z,3.10
2023-02-28T04:23:25.920Z,2.90
2023-02-28T04:24:25.956Z,3.30
2023-02-28T04:25:25.951Z,3.20
2023-02-28T04:26:25.962Z,2.90
2023-02-28T04:27:25.986Z,3.20
2023-02-28T04:28:26.002Z,2.90
2023-02-28T04:29:26.023Z,3.10
2023-02-28T04:30:26.030Z,3.10
2023-02-28T04:31:26.217Z,3.30
2023-02-28T04:32:26.244Z,3.00
2023-02-28T04:33:26.089Z,3.10
2023-02-28T04:34:26.095Z,3.80
2023-02-28T04:35:26.157Z,4.10
2023-02-28T04:36:26.189Z,3.40
2023-02-28T04:37:26.149Z,3.20
2023-02-28T04:38:26.169Z,3.20
2023-02-28T04:39:26.179Z,3.70
2023-02-28T04:40:26.208Z,3.40
2023-02-28T04:41:26.273Z,3.20
2023-02-28T04:42:26.244Z,3.00
2023-02-28T04:43:26.251Z,3.20
2023-02-28T04:44:26.267Z,3.30
2023-02-28T04:45:26.339Z,3.50
2023-02-28T04:46:26.300Z,3.20
2023-02-28T04:47:26.316Z,3.30
2023-02-28T04:48:26.325Z,3.10
2023-02-28T04:49:26.361Z,3.10
2023-02-28T04:50:26.374Z,3.50
2023-02-28T04:51:26.434Z,3.10
2023-02-28T04:52:26.423Z,3.70
2023-02-28T04:53:26.406Z,3.30
2023-02-28T04:54:26.432Z,3.30
2023-02-28T04:55:26.446Z,3.10
2023-02-28T04:56:26.529Z,3.30
2023-02-28T04:57:26.471Z,3.00
2023-02-28T04:58:26.488Z,3.30
2023-02-28T04:59:26.512Z,3.50
2023-02-28T05:00:26.521Z,3.30
2023-02-28T05:01:26.670Z,3.20
2023-02-28T05:02:26.589Z,3.30
2023-02-28T05:03:28.041Z,3.30
2023-02-28T05:04:26.662Z,3.00
2023-02-28T05:05:26.603Z,3.30
2023-02-28T05:06:26.624Z,3.00
2023-02-28T05:07:26.638Z,3.40
2023-02-28T05:08:26.689Z,3.20
2023-02-28T05:09:26.676Z,3.30
2023-02-28T05:10:26.694Z,3.10
2023-02-28T05:11:26.865Z,3.40
2023-02-28T05:12:26.722Z,5.20
2023-02-28T05:13:26.746Z,3.20
2023-02-28T05:14:26.758Z,3.00
2023-02-28T05:15:26.775Z,3.20
2023-02-28T05:16:26.845Z,3.30
2023-02-28T05:17:26.812Z,3.20
2023-02-28T05:18:26.825Z,3.30
2023-02-28T05:19:26.851Z,3.10
2023-02-28T05:20:26.870Z,3.10
2023-02-28T05:21:27.193Z,3.30
2023-02-28T05:22:26.892Z,3.30
2023-02-28T05:23:26.900Z,3.30
2023-02-28T05:24:26.943Z,3.30
2023-02-28T05:25:26.935Z,3.40
2023-02-28T05:26:26.956Z,3.10
2023-02-28T05:27:26.970Z,3.30
2023-02-28T05:28:26.992Z,3.20
2023-02-28T05:29:26.999Z,3.30
2023-02-28T05:30:27.016Z,3.10
2023-02-28T05:31:27.573Z,3.30
2023-02-28T05:32:27.145Z,3.10
2023-02-28T05:33:27.073Z,3.20
2023-02-28T05:34:27.082Z,3.10
2023-02-28T05:35:27.155Z,3.30
2023-02-28T05:36:27.130Z,3.10
2023-02-28T05:37:27.134Z,3.20
2023-02-28T05:38:27.154Z,3.00
2023-02-28T05:39:27.164Z,3.30
2023-02-28T05:40:27.201Z,3.10
2023-02-28T05:41:27.729Z,3.00
2023-02-28T05:42:27.221Z,3.30
2023-02-28T05:43:27.254Z,3.20
2023-02-28T05:44:27.246Z,3.20
2023-02-28T05:45:27.278Z,3.00
2023-02-28T05:46:27.287Z,3.00
2023-02-28T05:47:27.302Z,3.20
2023-02-28T05:48:27.437Z,3.10
2023-02-28T05:49:27.330Z,3.00
2023-02-28T05:50:27.357Z,3.20
2023-02-28T05:51:27.637Z,3.50
2023-02-28T05:52:27.385Z,3.00
2023-02-28T05:53:27.401Z,3.20
2023-02-28T05:54:27.422Z,3.20
2023-02-28T05:55:27.429Z,3.10
2023-02-28T05:56:27.474Z,3.10
2023-02-28T05:57:27.463Z,3.20
2023-02-28T05:58:27.581Z,3.20
2023-02-28T05:59:27.503Z,3.10
2023-02-28T06:00:27.523Z,3.20
2023-02-28T06:01:27.858Z,3.20
2023-02-28T06:02:27.564Z,2.90
2023-02-28T06:03:27.657Z,3.10
2023-02-28T06:04:31.849Z,2.80
2023-02-28T06:05:27.597Z,3.00
2023-02-28T06:06:27.630Z,3.10
2023-02-28T06:07:27.629Z,3.10
2023-02-28T06:08:27.655Z,2.90
2023-02-28T06:09:27.678Z,3.20
2023-02-28T06:10:27.680Z,3.00
2023-02-28T06:11:28.221Z,3.20
2023-02-28T06:12:27.755Z,3.10
2023-02-28T06:13:27.734Z,3.20
2023-02-28T06:14:27.748Z,2.90
2023-02-28T06:15:27.762Z,3.10
2023-02-28T06:16:27.894Z,3.40
2023-02-28T06:17:27.810Z,3.30
2023-02-28T06:18:27.830Z,3.30
2023-02-28T06:19:27.835Z,3.20
2023-02-28T06:20:27.856Z,2.90
2023-02-28T06:21:28.392Z,3.40
2023-02-28T06:22:27.879Z,2.80
2023-02-28T06:23:27.895Z,3.00
2023-02-28T06:24:27.920Z,3.60
2023-02-28T06:25:27.942Z,3.20
2023-02-28T06:26:27.945Z,3.50
2023-02-28T06:27:27.965Z,3.00
2023-02-28T06:28:28.006Z,3.90
2023-02-28T06:29:27.996Z,3.40
2023-02-28T06:30:28.129Z,3.10
2023-02-28T06:31:28.381Z,3.20
2023-02-28T06:32:28.051Z,3.30
2023-02-28T06:33:28.085Z,3.40
2023-02-28T06:34:28.083Z,3.40
2023-02-28T06:35:28.128Z,2.80
2023-02-28T06:36:28.114Z,3.20
2023-02-28T06:37:28.128Z,3.40
2023-02-28T06:38:28.152Z,3.40
2023-02-28T06:39:28.168Z,3.10
2023-02-28T06:40:28.190Z,3.00
2023-02-28T06:41:28.907Z,3.00
2023-02-28T06:42:28.218Z,3.20
2023-02-28T06:43:28.234Z,3.00
2023-02-28T06:44:28.267Z,3.30
2023-02-28T06:45:28.267Z,3.10
2023-02-28T06:46:28.314Z,3.00
2023-02-28T06:47:28.293Z,3.20
2023-02-28T06:48:28.324Z,3.20
2023-02-28T06:49:28.326Z,3.20
2023-02-28T06:50:28.342Z,3.70
2023-02-28T06:51:28.695Z,3.30
2023-02-28T06:52:28.376Z,3.00
2023-02-28T06:53:28.393Z,3.00
2023-02-28T06:54:28.419Z,3.20
2023-02-28T06:55:30.648Z,3.20
2023-02-28T06:56:28.443Z,3.30
2023-02-28T06:57:28.466Z,3.40
2023-02-28T06:58:28.479Z,3.20
2023-02-28T06:59:28.491Z,3.30
2023-02-28T07:00:28.530Z,2.80
2023-02-28T07:01:28.905Z,3.00
2023-02-28T07:02:28.574Z,3.30
2023-02-28T07:03:28.569Z,3.20
2023-02-28T07:04:28.614Z,3.20
2023-02-28T07:05:28.595Z,3.10
2023-02-28T07:06:28.663Z,3.10
2023-02-28T07:07:28.618Z,3.90
2023-02-28T07:08:28.636Z,3.30
2023-02-28T07:09:28.658Z,3.40
2023-02-28T07:10:28.667Z,3.80
2023-02-28T07:11:29.098Z,4.00
2023-02-28T07:12:28.707Z,3.00
2023-02-28T07:13:28.725Z,3.40
2023-02-28T07:14:28.732Z,4.30
2023-02-28T07:15:28.756Z,3.50
2023-02-28T07:16:28.850Z,3.30
2023-02-28T07:17:28.781Z,3.30
2023-02-28T07:18:28.879Z,3.20
2023-02-28T07:19:28.812Z,3.40
2023-02-28T07:20:28.865Z,3.30
2023-02-28T07:21:29.277Z,3.30
2023-02-28T07:22:28.877Z,3.20
2023-02-28T07:23:28.878Z,3.30
2023-02-28T07:24:28.894Z,3.20
2023-02-28T07:25:28.916Z,3.10
2023-02-28T07:26:28.931Z,3.20
2023-02-28T07:27:28.946Z,3.30
2023-02-28T07:28:28.975Z,3.40
2023-02-28T07:29:28.982Z,3.20
2023-02-28T07:30:28.998Z,3.10
2023-02-28T07:31:29.416Z,3.00
2023-02-28T07:32:29.194Z,3.30
2023-02-28T07:33:29.050Z,3.00
2023-02-28T07:34:29.069Z,3.00
2023-02-28T07:35:29.110Z,3.40
2023-02-28T07:36:29.105Z,3.00
2023-02-28T07:37:29.113Z,3.10
2023-02-28T07:38:29.136Z,3.20
2023-02-28T07:39:29.158Z,3.10
2023-02-28T07:40:29.161Z,3.10
2023-02-28T07:41:29.556Z,3.30
2023-02-28T07:42:29.204Z,3.40
2023-02-28T07:43:29.217Z,2.90
2023-02-28T07:44:29.229Z,3.20
2023-02-28T07:45:29.250Z,3.30
2023-02-28T07:46:30.718Z,2.90
2023-02-28T07:47:29.281Z,3.10
2023-02-28T07:48:29.312Z,3.40
2023-02-28T07:49:29.313Z,3.20
2023-02-28T07:50:29.351Z,3.20
2023-02-28T07:51:29.647Z,3.10
2023-02-28T07:52:29.365Z,3.20
2023-02-28T07:53:29.391Z,3.30
2023-02-28T07:54:29.408Z,3.00
2023-02-28T07:55:29.430Z,3.50
2023-02-28T07:56:29.823Z,2.80
2023-02-28T07:57:29.453Z,3.10
2023-02-28T07:58:29.463Z,3.60
2023-02-28T07:59:32.127Z,3.30
2023-02-28T08:00:29.534Z,3.30
2023-02-28T08:01:29.848Z,3.40
2023-02-28T08:02:29.529Z,3.40
2023-02-28T08:03:29.559Z,3.00
2023-02-28T08:04:29.663Z,3.00
2023-02-28T08:05:29.578Z,3.10
2023-02-28T08:06:29.594Z,4.00
2023-02-28T08:07:29.618Z,3.40
2023-02-28T08:08:29.628Z,3.30
2023-02-28T08:09:29.644Z,3.20
2023-02-28T08:10:29.666Z,3.30
2023-02-28T08:11:29.901Z,3.50
2023-02-28T08:12:29.697Z,3.10
2023-02-28T08:13:29.715Z,3.90
2023-02-28T08:14:29.724Z,3.10
2023-02-28T08:15:29.748Z,3.20
2023-02-28T08:16:29.816Z,3.20
2023-02-28T08:17:29.781Z,3.30
2023-02-28T08:18:29.791Z,3.10
2023-02-28T08:19:29.813Z,3.00
2023-02-28T08:20:29.847Z,3.10
2023-02-28T08:21:30.263Z,3.20
2023-02-28T08:22:29.872Z,2.90
2023-02-28T08:23:29.871Z,3.10
2023-02-28T08:24:29.894Z,3.00
2023-02-28T08:25:29.913Z,3.30
2023-02-28T08:26:29.935Z,3.10
2023-02-28T08:27:29.940Z,3.40
2023-02-28T08:28:29.954Z,3.40
2023-02-28T08:29:29.968Z,3.30
2023-02-28T08:30:29.986Z,2.90
2023-02-28T08:31:31.021Z,3.20
2023-02-28T08:32:30.619Z,3.00
2023-02-28T08:33:30.041Z,3.00
2023-02-28T08:34:30.057Z,3.00
2023-02-28T08:35:30.133Z,3.10
2023-02-28T08:36:30.204Z,3.20
2023-02-28T08:37:30.108Z,3.10
2023-02-28T08:38:30.128Z,3.30
2023-02-28T08:39:30.132Z,3.00
2023-02-28T08:40:30.157Z,2.90
2023-02-28T08:41:30.554Z,3.00
2023-02-28T08:42:30.192Z,2.90
2023-02-28T08:43:30.197Z,3.20
2023-02-28T08:44:30.217Z,3.40
2023-02-28T08:45:30.460Z,3.00
2023-02-28T08:46:30.253Z,3.90
2023-02-28T08:47:30.260Z,3.20
2023-02-28T08:48:30.276Z,3.70
2023-02-28T08:49:30.300Z,3.20
2023-02-28T08:50:30.321Z,2.70
2023-02-28T08:51:30.722Z,3.20
2023-02-28T08:52:30.378Z,3.30
2023-02-28T08:53:30.359Z,3.10
2023-02-28T08:54:30.380Z,2.80
2023-02-28T08:55:30.407Z,3.20
2023-02-28T08:56:30.409Z,3.20
2023-02-28T08:57:30.429Z,2.80
2023-02-28T08:58:30.444Z,3.70
2023-02-28T08:59:30.454Z,3.10
2023-02-28T09:00:30.477Z,2.90
2023-02-28T09:01:31.003Z,2.90
2023-02-28T09:02:30.511Z,3.60
2023-02-28T09:03:30.518Z,2.90
2023-02-28T09:04:30.543Z,3.20
2023-02-28T09:05:30.551Z,2.90
2023-02-28T09:06:30.901Z,3.10
2023-02-28T09:07:30.590Z,3.20
2023-02-28T09:08:30.626Z,3.60
2023-02-28T09:09:30.617Z,2.70
2023-02-28T09:10:30.640Z,2.90
2023-02-28T09:11:30.653Z,3.00
2023-02-28T09:12:30.672Z,3.10
2023-02-28T09:13:30.715Z,3.50
2023-02-28T09:14:30.706Z,3.30
2023-02-28T09:15:30.714Z,3.70
2023-02-28T09:16:30.832Z,3.00
2023-02-28T09:17:31.261Z,3.60
2023-02-28T09:18:30.766Z,3.60
2023-02-28T09:19:30.786Z,4.00
2023-02-28T09:20:30.797Z,3.10
2023-02-28T09:21:31.167Z,3.80
2023-02-28T09:22:30.831Z,3.20
2023-02-28T09:23:30.845Z,3.20
2023-02-28T09:24:31.769Z,3.40
2023-02-28T09:25:30.879Z,3.00
2023-02-28T09:26:35.305Z,3.20
2023-02-28T09:27:30.911Z,3.50
2023-02-28T09:28:30.941Z,3.20
2023-02-28T09:29:30.976Z,3.10
2023-02-28T09:30:31.024Z,3.30
2023-02-28T09:31:30.997Z,3.20
2023-02-28T09:32:31.100Z,3.20
2023-02-28T09:33:31.020Z,3.30
2023-02-28T09:34:31.070Z,3.60
2023-02-28T09:35:31.044Z,3.60
2023-02-28T09:36:41.805Z,3.60
2023-02-28T09:37:31.086Z,3.50
2023-02-28T09:38:31.100Z,3.20
2023-02-28T09:39:31.110Z,3.20
2023-02-28T09:40:31.145Z,3.10
2023-02-28T09:41:31.144Z,3.20
2023-02-28T09:42:31.163Z,4.10
2023-02-28T09:43:31.181Z,3.30
2023-02-28T09:44:31.199Z,3.40
2023-02-28T09:45:31.211Z,3.50
2023-02-28T09:46:31.306Z,3.20
2023-02-28T09:47:31.253Z,3.20
2023-02-28T09:48:31.257Z,3.20
2023-02-28T09:49:31.283Z,3.80
2023-02-28T09:50:31.301Z,4.20
2023-02-28T09:51:31.618Z,3.30
2023-02-28T09:52:31.348Z,4.20
2023-02-28T09:53:31.350Z,4.30
2023-02-28T09:54:31.368Z,3.30
2023-02-28T09:55:35.299Z,3.30
2023-02-28T09:56:31.679Z,3.30
2023-02-28T09:57:31.414Z,4.40
2023-02-28T09:58:31.431Z,3.30
2023-02-28T09:59:31.445Z,3.20
2023-02-28T10:00:31.454Z,3.60
2023-02-28T10:01:31.834Z,3.40
2023-02-28T10:02:31.501Z,3.80
2023-02-28T10:03:31.512Z,4.50
2023-02-28T10:04:31.582Z,3.10
2023-02-28T10:05:31.535Z,3.30
2023-02-28T10:06:31.593Z,3.30
2023-02-28T10:07:31.577Z,3.60
2023-02-28T10:08:31.584Z,3.30
2023-02-28T10:09:31.626Z,3.40
2023-02-28T10:10:31.633Z,4.10
2023-02-28T10:11:32.070Z,3.30
2023-02-28T10:12:31.689Z,3.90
2023-02-28T10:13:31.676Z,4.20
2023-02-28T10:14:31.694Z,3.80
2023-02-28T10:15:31.802Z,3.80
2023-02-28T10:16:32.104Z,3.70
2023-02-28T10:17:32.565Z,4.10
2023-02-28T10:18:31.751Z,3.50
2023-02-28T10:19:31.766Z,3.90
2023-02-28T10:20:31.791Z,3.60
2023-02-28T10:21:31.795Z,3.40
2023-02-28T10:22:31.818Z,4.00
2023-02-28T10:23:31.835Z,3.40
2023-02-28T10:24:31.864Z,3.50
2023-02-28T10:25:31.866Z,3.50
2023-02-28T10:26:32.218Z,3.60
2023-02-28T10:27:31.902Z,3.60
2023-02-28T10:28:31.944Z,4.00
2023-02-28T10:29:31.926Z,3.80
2023-02-28T10:30:31.950Z,4.20
2023-02-28T10:31:32.051Z,3.60
2023-02-28T10:32:31.980Z,4.30
2023-02-28T10:33:32.004Z,4.00
2023-02-28T10:34:32.011Z,4.30
2023-02-28T10:35:32.025Z,3.80
2023-02-28T10:36:33.549Z,4.50
2023-02-28T10:37:32.068Z,3.70
2023-02-28T10:38:32.080Z,4.20
2023-02-28T10:39:32.092Z,3.90
2023-02-28T10:40:32.115Z,6.50
2023-02-28T10:41:32.122Z,4.50
2023-02-28T10:42:32.138Z,4.10
2023-02-28T10:43:32.168Z,4.20
2023-02-28T10:44:32.594Z,4.20
2023-02-28T10:45:32.188Z,4.50
2023-02-28T10:46:32.707Z,3.90
2023-02-28T10:47:32.220Z,5.50
2023-02-28T10:48:32.246Z,5.60
2023-02-28T10:49:32.256Z,5.10
2023-02-28T10:50:32.283Z,5.40
2023-02-28T10:51:32.353Z,3.90
2023-02-28T10:52:32.309Z,4.40
2023-02-28T10:53:32.961Z,3.80
2023-02-28T10:54:32.341Z,4.60
2023-02-28T10:55:32.359Z,4.70
2023-02-28T10:56:32.770Z,3.90
2023-02-28T10:57:32.424Z,4.10
2023-02-28T10:58:32.402Z,4.90
2023-02-28T10:59:32.426Z,6.50
2023-02-28T11:00:32.458Z,4.20
2023-02-28T11:01:32.818Z,5.00
2023-02-28T11:02:35.907Z,4.60
2023-02-28T11:03:32.485Z,4.20
2023-02-28T11:04:32.541Z,4.50
2023-02-28T11:05:32.524Z,4.60
2023-02-28T11:06:32.884Z,4.70
2023-02-28T11:07:41.545Z,5.20
2023-02-28T11:08:32.571Z,4.50
2023-02-28T11:09:32.584Z,4.70
2023-02-28T11:10:32.596Z,4.50
2023-02-28T11:11:32.848Z,4.50
2023-02-28T11:12:34.156Z,4.20
2023-02-28T11:13:32.646Z,4.10
2023-02-28T11:14:32.656Z,4.90
2023-02-28T11:15:32.673Z,4.50
2023-02-28T11:16:32.713Z,4.70
2023-02-28T11:17:32.703Z,3.90
2023-02-28T11:18:32.728Z,4.30
2023-02-28T11:19:32.743Z,5.80
2023-02-28T11:20:32.774Z,5.20
2023-02-28T11:21:33.087Z,4.00
2023-02-28T11:22:32.801Z,4.10
2023-02-28T11:23:32.802Z,4.40
2023-02-28T11:24:32.831Z,4.30
2023-02-28T11:25:32.841Z,4.60
2023-02-28T11:26:32.849Z,3.90
2023-02-28T11:27:32.882Z,4.10
2023-02-28T11:28:32.889Z,4.20
2023-02-28T11:29:32.907Z,4.80
2023-02-28T11:30:32.921Z,4.10
2023-02-28T11:31:33.274Z,4.50
2023-02-28T11:32:33.046Z,3.70
2023-02-28T11:33:32.971Z,4.40
2023-02-28T11:34:32.995Z,4.30
2023-02-28T11:35:32.994Z,4.60
2023-02-28T11:36:33.013Z,4.90
2023-02-28T11:37:33.031Z,5.20
2023-02-28T11:38:33.044Z,4.90
2023-02-28T11:39:33.059Z,4.30
2023-02-28T11:40:33.082Z,5.10
2023-02-28T11:41:33.099Z,3.80
2023-02-28T11:42:33.117Z,5.60
2023-02-28T11:43:33.125Z,4.20
2023-02-28T11:44:33.148Z,4.30
2023-02-28T11:45:33.157Z,4.20
2023-02-28T11:46:33.191Z,3.90
2023-02-28T11:47:33.188Z,3.90
2023-02-28T11:48:33.225Z,4.50
2023-02-28T11:49:33.230Z,3.90
2023-02-28T11:50:33.248Z,4.70
2023-02-28T11:51:33.265Z,4.90
2023-02-28T11:52:33.270Z,4.30
2023-02-28T11:53:33.289Z,3.70
2023-02-28T11:54:33.314Z,4.80
2023-02-28T11:55:33.330Z,4.80
2023-02-28T11:56:33.344Z,4.60
2023-02-28T11:57:33.377Z,4.70
2023-02-28T11:58:33.385Z,3.30
2023-02-28T11:59:33.396Z,4.00
2023-02-28T12:00:33.412Z,4.30
2023-02-28T12:01:33.436Z,3.60
2023-02-28T12:02:33.580Z,4.30
2023-02-28T12:03:33.564Z,5.10
2023-02-28T12:04:33.504Z,3.80
2023-02-28T12:05:33.506Z,4.10
2023-02-28T12:06:33.508Z,4.60
2023-02-28T12:07:33.531Z,4.80
2023-02-28T12:08:33.555Z,4.00
2023-02-28T12:09:33.565Z,4.30
2023-02-28T12:10:33.581Z,4.00
2023-02-28T12:11:33.610Z,4.00
2023-02-28T12:12:33.607Z,3.90
2023-02-28T12:13:33.631Z,3.90
2023-02-28T12:14:33.652Z,4.10
2023-02-28T12:15:33.664Z,4.30
2023-02-28T12:16:33.778Z,3.70
2023-02-28T12:17:33.689Z,3.70
2023-02-28T12:18:33.708Z,4.40
2023-02-28T12:19:33.732Z,3.70
2023-02-28T12:20:33.777Z,4.70
2023-02-28T12:21:33.757Z,3.90
2023-02-28T12:22:33.773Z,3.70
2023-02-28T12:23:33.793Z,4.10
2023-02-28T12:24:33.815Z,3.50
2023-02-28T12:25:33.832Z,3.60
2023-02-28T12:26:33.856Z,3.70
2023-02-28T12:27:33.853Z,4.10
2023-02-28T12:28:33.876Z,4.60
2023-02-28T12:29:33.892Z,3.70
2023-02-28T12:30:33.908Z,3.60
2023-02-28T12:31:33.938Z,3.60
2023-02-28T12:32:33.994Z,3.40
2023-02-28T12:33:33.962Z,3.70
2023-02-28T12:34:33.969Z,3.80
2023-02-28T12:35:34.043Z,3.60
2023-02-28T12:36:34.054Z,4.60
2023-02-28T12:37:34.026Z,3.80
2023-02-28T12:38:34.037Z,4.50
2023-02-28T12:39:41.656Z,3.80
2023-02-28T12:40:34.062Z,3.40
2023-02-28T12:41:34.111Z,3.60
2023-02-28T12:42:34.099Z,4.10
2023-02-28T12:43:34.119Z,4.20
2023-02-28T12:44:34.137Z,3.70
2023-02-28T12:45:34.224Z,3.70
2023-02-28T12:46:34.273Z,4.00
2023-02-28T12:47:34.175Z,4.70
2023-02-28T12:48:34.206Z,3.70
2023-02-28T12:49:34.229Z,3.60
2023-02-28T12:50:34.233Z,3.40
2023-02-28T12:51:34.251Z,3.20
2023-02-28T12:52:34.294Z,3.40
2023-02-28T12:53:34.275Z,3.50
2023-02-28T12:54:34.290Z,3.20
2023-02-28T12:55:34.329Z,3.10
2023-02-28T12:56:34.331Z,4.40
2023-02-28T12:57:34.351Z,3.90
2023-02-28T12:58:34.360Z,3.50
2023-02-28T12:59:34.377Z,3.30
2023-02-28T13:00:34.388Z,3.50
2023-02-28T13:01:34.631Z,3.80
2023-02-28T13:02:34.459Z,3.10
2023-02-28T13:03:34.444Z,3.80
2023-02-28T13:04:34.453Z,3.80
2023-02-28T13:05:34.477Z,3.50
2023-02-28T13:06:34.494Z,4.50
2023-02-28T13:07:34.500Z,3.70
2023-02-28T13:08:34.543Z,3.70
2023-02-28T13:09:34.579Z,3.90
2023-02-28T13:10:34.550Z,3.30
2023-02-28T13:11:34.914Z,3.30
2023-02-28T13:12:34.593Z,3.40
2023-02-28T13:13:34.605Z,3.00
2023-02-28T13:14:34.614Z,4.00
2023-02-28T13:15:34.639Z,3.50
2023-02-28T13:16:35.879Z,3.70
2023-02-28T13:17:34.670Z,3.40
2023-02-28T13:18:34.702Z,3.20